sensor_id;sensor_type;location;lat;lon;timestamp;pressure;altitude;pressure_sealevel;temperature;humidity
8051;BME280;4068;42.158;24.732;2023-07-31T00:01:17;98995.16;;;23.56;63.51
8051;BME280;4068;42.158;24.732;2023-07-31T00:03:43;98993.47;;;23.55;63.78
8051;BME280;4068;42.158;24.732;2023-07-31T00:06:08;99001.59;;;23.55;64.00
8051;BME280;4068;42.158;24.732;2023-07-31T00:08:33;99007.84;;;23.55;63.99
8051;BME280;4068;42.158;24.732;2023-07-31T00:10:59;99005.13;;;23.55;64.06
8051;BME280;4068;42.158;24.732;2023-07-31T00:13:24;99004.44;;;23.60;64.05
8051;BME280;4068;42.158;24.732;2023-07-31T00:15:50;98994.16;;;23.50;64.07
8051;BME280;4068;42.158;24.732;2023-07-31T00:18:15;98994.22;;;23.43;64.30
8051;BME280;4068;42.158;24.732;2023-07-31T00:20:41;99013.09;;;23.50;64.89
8051;BME280;4068;42.158;24.732;2023-07-31T00:23:06;98994.03;;;23.38;64.23
8051;BME280;4068;42.158;24.732;2023-07-31T00:25:31;99021.81;;;23.52;64.75
8051;BME280;4068;42.158;24.732;2023-07-31T00:27:57;99022.25;;;23.49;65.03
8051;BME280;4068;42.158;24.732;2023-07-31T00:30:22;99018.72;;;23.49;65.21
8051;BME280;4068;42.158;24.732;2023-07-31T00:32:50;99023.28;;;23.48;65.91
8051;BME280;4068;42.158;24.732;2023-07-31T00:35:15;99019.16;;;23.46;65.42
8051;BME280;4068;42.158;24.732;2023-07-31T00:37:41;99021.84;;;23.46;65.42
8051;BME280;4068;42.158;24.732;2023-07-31T00:40:07;99012.31;;;23.43;65.59
8051;BME280;4068;42.158;24.732;2023-07-31T00:42:32;99021.03;;;23.45;65.80
8051;BME280;4068;42.158;24.732;2023-07-31T00:44:58;99011.03;;;23.46;65.44
8051;BME280;4068;42.158;24.732;2023-07-31T00:47:23;99016.66;;;23.44;66.00
8051;BME280;4068;42.158;24.732;2023-07-31T00:49:49;99021.63;;;23.47;65.24
8051;BME280;4068;42.158;24.732;2023-07-31T00:52:14;99020.59;;;23.48;65.66
8051;BME280;4068;42.158;24.732;2023-07-31T00:54:40;99024.28;;;23.54;65.42
8051;BME280;4068;42.158;24.732;2023-07-31T00:57:05;99021.09;;;23.64;64.92
8051;BME280;4068;42.158;24.732;2023-07-31T00:59:33;99023.06;;;23.75;64.82
8051;BME280;4068;42.158;24.732;2023-07-31T01:01:59;99016.16;;;23.79;64.51
8051;BME280;4068;42.158;24.732;2023-07-31T01:04:25;99023.63;;;23.84;64.19
8051;BME280;4068;42.158;24.732;2023-07-31T01:09:38;99042.34;;;23.85;64.27
8051;BME280;4068;42.158;24.732;2023-07-31T01:12:07;99036.09;;;23.85;64.42
8051;BME280;4068;42.158;24.732;2023-07-31T01:14:33;99021.34;;;23.87;63.71
8051;BME280;4068;42.158;24.732;2023-07-31T01:16:58;99017.84;;;23.80;64.07
8051;BME280;4068;42.158;24.732;2023-07-31T01:19:25;99036.44;;;23.95;63.87
8051;BME280;4068;42.158;24.732;2023-07-31T01:24:36;99040.59;;;23.98;63.54
8051;BME280;4068;42.158;24.732;2023-07-31T01:27:11;99041.69;;;23.90;63.92
8051;BME280;4068;42.158;24.732;2023-07-31T01:32:36;99032.22;;;23.74;64.49
8051;BME280;4068;42.158;24.732;2023-07-31T01:35:04;99023.78;;;23.64;65.36
8051;BME280;4068;42.158;24.732;2023-07-31T01:37:30;99042.56;;;23.58;66.02
8051;BME280;4068;42.158;24.732;2023-07-31T01:39:55;99045.56;;;23.50;66.39
8051;BME280;4068;42.158;24.732;2023-07-31T01:42:21;99036.81;;;23.48;66.62
8051;BME280;4068;42.158;24.732;2023-07-31T01:44:46;99038.97;;;23.39;66.79
8051;BME280;4068;42.158;24.732;2023-07-31T01:47:11;99035.94;;;23.29;67.08
8051;BME280;4068;42.158;24.732;2023-07-31T01:49:37;99033.69;;;23.26;66.98
8051;BME280;4068;42.158;24.732;2023-07-31T01:52:02;99032.47;;;23.15;67.81
8051;BME280;4068;42.158;24.732;2023-07-31T01:54:28;99028.75;;;23.09;68.02
8051;BME280;4068;42.158;24.732;2023-07-31T01:56:53;99013.25;;;22.91;68.41
8051;BME280;4068;42.158;24.732;2023-07-31T01:59:19;99028.88;;;22.89;68.67
8051;BME280;4068;42.158;24.732;2023-07-31T02:01:44;99030.38;;;22.79;70.29
8051;BME280;4068;42.158;24.732;2023-07-31T02:04:09;99028.06;;;22.82;70.74
8051;BME280;4068;42.158;24.732;2023-07-31T02:06:35;99036.78;;;22.84;71.18
8051;BME280;4068;42.158;24.732;2023-07-31T02:09:00;99017.50;;;22.74;70.87
8051;BME280;4068;42.158;24.732;2023-07-31T02:11:26;99042.56;;;22.95;69.57
8051;BME280;4068;42.158;24.732;2023-07-31T02:13:51;99043.09;;;23.10;68.47
8051;BME280;4068;42.158;24.732;2023-07-31T02:16:16;99038.50;;;23.17;68.04
8051;BME280;4068;42.158;24.732;2023-07-31T02:18:42;99031.22;;;23.18;67.94
8051;BME280;4068;42.158;24.732;2023-07-31T02:21:07;99027.84;;;23.22;67.58
8051;BME280;4068;42.158;24.732;2023-07-31T02:23:33;99006.09;;;23.04;67.87
8051;BME280;4068;42.158;24.732;2023-07-31T02:25:58;99024.81;;;23.12;68.22
8051;BME280;4068;42.158;24.732;2023-07-31T02:28:24;98997.19;;;23.03;67.73
8051;BME280;4068;42.158;24.732;2023-07-31T02:30:50;98994.06;;;23.00;68.09
8051;BME280;4068;42.158;24.732;2023-07-31T02:33:16;99023.25;;;23.23;68.44
8051;BME280;4068;42.158;24.732;2023-07-31T02:35:41;99019.94;;;23.27;68.92
8051;BME280;4068;42.158;24.732;2023-07-31T02:38:07;99015.03;;;23.43;69.26
8051;BME280;4068;42.158;24.732;2023-07-31T02:40:32;99009.78;;;23.48;70.16
8051;BME280;4068;42.158;24.732;2023-07-31T02:42:58;99017.00;;;23.54;71.17
8051;BME280;4068;42.158;24.732;2023-07-31T02:45:23;98985.28;;;23.43;73.09
8051;BME280;4068;42.158;24.732;2023-07-31T02:47:48;99010.25;;;23.64;73.61
8051;BME280;4068;42.158;24.732;2023-07-31T02:50:14;99016.44;;;23.71;75.80
8051;BME280;4068;42.158;24.732;2023-07-31T02:52:39;98995.06;;;23.63;76.63
8051;BME280;4068;42.158;24.732;2023-07-31T02:55:05;99007.88;;;23.74;77.41
8051;BME280;4068;42.158;24.732;2023-07-31T02:57:31;99000.06;;;23.84;78.79
8051;BME280;4068;42.158;24.732;2023-07-31T02:59:57;99006.09;;;23.86;79.60
8051;BME280;4068;42.158;24.732;2023-07-31T03:02:22;98998.19;;;23.91;80.39
8051;BME280;4068;42.158;24.732;2023-07-31T03:04:47;99001.84;;;23.97;81.59
8051;BME280;4068;42.158;24.732;2023-07-31T03:07:13;98995.38;;;23.98;82.21
8051;BME280;4068;42.158;24.732;2023-07-31T03:09:38;98999.91;;;24.04;82.78
8051;BME280;4068;42.158;24.732;2023-07-31T03:12:04;98990.72;;;24.05;84.96
8051;BME280;4068;42.158;24.732;2023-07-31T03:14:29;99009.84;;;24.10;88.79
8051;BME280;4068;42.158;24.732;2023-07-31T03:16:55;99000.34;;;24.01;94.17
8051;BME280;4068;42.158;24.732;2023-07-31T03:19:20;99006.09;;;23.86;98.37
8051;BME280;4068;42.158;24.732;2023-07-31T03:21:46;99010.81;;;23.72;100.00
8051;BME280;4068;42.158;24.732;2023-07-31T03:24:11;99016.78;;;23.56;100.00
8051;BME280;4068;42.158;24.732;2023-07-31T03:26:37;99008.44;;;23.32;100.00
8051;BME280;4068;42.158;24.732;2023-07-31T03:29:03;99021.66;;;23.15;100.00
8051;BME280;4068;42.158;24.732;2023-07-31T03:31:28;99023.16;;;23.04;100.00
8051;BME280;4068;42.158;24.732;2023-07-31T03:33:54;99025.94;;;22.91;100.00
8051;BME280;4068;42.158;24.732;2023-07-31T03:36:19;99032.44;;;22.83;100.00
8051;BME280;4068;42.158;24.732;2023-07-31T03:38:46;99038.91;;;22.75;100.00
8051;BME280;4068;42.158;24.732;2023-07-31T03:41:12;99038.34;;;22.67;100.00
8051;BME280;4068;42.158;24.732;2023-07-31T03:43:37;99042.69;;;22.68;100.00
8051;BME280;4068;42.158;24.732;2023-07-31T03:46:03;99043.75;;;22.60;100.00
8051;BME280;4068;42.158;24.732;2023-07-31T03:48:29;99055.03;;;22.50;100.00
8051;BME280;4068;42.158;24.732;2023-07-31T03:50:54;99076.03;;;22.41;100.00
8051;BME280;4068;42.158;24.732;2023-07-31T03:53:20;99078.72;;;22.48;100.00
8051;BME280;4068;42.158;24.732;2023-07-31T03:55:45;99079.56;;;22.42;100.00
8051;BME280;4068;42.158;24.732;2023-07-31T03:58:11;99075.00;;;22.29;100.00
8051;BME280;4068;42.158;24.732;2023-07-31T04:00:36;99078.53;;;22.30;100.00
8051;BME280;4068;42.158;24.732;2023-07-31T04:03:02;99051.16;;;22.06;100.00
8051;BME280;4068;42.158;24.732;2023-07-31T04:05:27;99083.13;;;22.16;100.00
8051;BME280;4068;42.158;24.732;2023-07-31T04:07:52;99071.06;;;22.25;100.00
8051;BME280;4068;42.158;24.732;2023-07-31T04:10:18;99085.38;;;22.19;100.00
8051;BME280;4068;42.158;24.732;2023-07-31T04:12:43;99086.06;;;22.08;100.00
8051;BME280;4068;42.158;24.732;2023-07-31T04:15:09;99088.94;;;22.13;100.00
8051;BME280;4068;42.158;24.732;2023-07-31T04:17:34;99091.22;;;22.22;100.00
8051;BME280;4068;42.158;24.732;2023-07-31T04:20:00;99063.22;;;22.03;100.00
8051;BME280;4068;42.158;24.732;2023-07-31T04:22:25;99100.38;;;22.15;100.00
8051;BME280;4068;42.158;24.732;2023-07-31T04:24:50;99096.00;;;22.14;100.00
8051;BME280;4068;42.158;24.732;2023-07-31T04:27:16;99091.84;;;22.04;100.00
8051;BME280;4068;42.158;24.732;2023-07-31T04:29:41;99105.78;;;22.08;100.00
8051;BME280;4068;42.158;24.732;2023-07-31T04:32:08;99105.34;;;22.18;100.00
8051;BME280;4068;42.158;24.732;2023-07-31T04:34:33;99079.59;;;22.09;100.00
8051;BME280;4068;42.158;24.732;2023-07-31T04:36:59;99100.56;;;22.27;100.00
8051;BME280;4068;42.158;24.732;2023-07-31T04:39:24;99112.41;;;22.26;100.00
8051;BME280;4068;42.158;24.732;2023-07-31T04:41:50;99105.94;;;22.47;100.00
8051;BME280;4068;42.158;24.732;2023-07-31T04:44:15;99112.38;;;22.59;100.00
8051;BME280;4068;42.158;24.732;2023-07-31T04:46:40;99104.66;;;22.63;100.00
8051;BME280;4068;42.158;24.732;2023-07-31T04:49:06;99117.94;;;22.71;100.00
8051;BME280;4068;42.158;24.732;2023-07-31T04:51:31;99078.63;;;22.75;100.00
8051;BME280;4068;42.158;24.732;2023-07-31T04:53:57;99100.16;;;22.95;100.00
8051;BME280;4068;42.158;24.732;2023-07-31T04:56:22;99084.09;;;23.07;100.00
8051;BME280;4068;42.158;24.732;2023-07-31T04:58:47;99104.91;;;23.45;100.00
8051;BME280;4068;42.158;24.732;2023-07-31T05:01:13;99099.56;;;23.64;100.00
8051;BME280;4068;42.158;24.732;2023-07-31T05:03:38;99108.88;;;23.74;100.00
8051;BME280;4068;42.158;24.732;2023-07-31T05:06:04;99079.75;;;23.70;100.00
8051;BME280;4068;42.158;24.732;2023-07-31T05:08:29;99105.34;;;23.99;100.00
8051;BME280;4068;42.158;24.732;2023-07-31T05:10:54;99105.91;;;24.08;100.00
8051;BME280;4068;42.158;24.732;2023-07-31T05:13:20;99100.88;;;24.11;100.00
8051;BME280;4068;42.158;24.732;2023-07-31T05:15:46;99110.59;;;24.19;100.00
8051;BME280;4068;42.158;24.732;2023-07-31T05:18:11;99109.09;;;24.23;100.00
8051;BME280;4068;42.158;24.732;2023-07-31T05:20:36;99107.16;;;24.30;100.00
8051;BME280;4068;42.158;24.732;2023-07-31T05:23:02;99103.63;;;24.30;100.00
8051;BME280;4068;42.158;24.732;2023-07-31T05:25:27;99088.25;;;24.24;100.00
8051;BME280;4068;42.158;24.732;2023-07-31T05:27:53;99117.25;;;24.42;100.00
8051;BME280;4068;42.158;24.732;2023-07-31T05:30:18;99103.25;;;24.45;100.00
8051;BME280;4068;42.158;24.732;2023-07-31T05:32:44;99098.88;;;24.44;100.00
8051;BME280;4068;42.158;24.732;2023-07-31T05:35:09;99119.53;;;24.63;100.00
8051;BME280;4068;42.158;24.732;2023-07-31T05:37:34;99116.00;;;24.63;100.00
8051;BME280;4068;42.158;24.732;2023-07-31T05:40:00;99117.44;;;24.66;100.00
8051;BME280;4068;42.158;24.732;2023-07-31T05:42:25;99119.94;;;24.67;100.00
8051;BME280;4068;42.158;24.732;2023-07-31T05:44:51;99120.19;;;24.59;100.00
8051;BME280;4068;42.158;24.732;2023-07-31T05:47:16;99123.28;;;24.62;100.00
8051;BME280;4068;42.158;24.732;2023-07-31T05:49:41;99118.31;;;24.59;100.00
8051;BME280;4068;42.158;24.732;2023-07-31T05:52:07;99123.34;;;24.56;100.00
8051;BME280;4068;42.158;24.732;2023-07-31T05:54:32;99120.00;;;24.60;100.00
8051;BME280;4068;42.158;24.732;2023-07-31T05:56:58;99102.97;;;24.72;100.00
8051;BME280;4068;42.158;24.732;2023-07-31T05:59:24;99125.59;;;25.14;100.00
8051;BME280;4068;42.158;24.732;2023-07-31T06:01:49;99126.78;;;25.37;99.58
8051;BME280;4068;42.158;24.732;2023-07-31T06:04:15;99117.97;;;25.54;98.47
8051;BME280;4068;42.158;24.732;2023-07-31T06:06:40;99123.94;;;25.74;97.28
8051;BME280;4068;42.158;24.732;2023-07-31T06:09:05;99126.25;;;26.01;92.98
8051;BME280;4068;42.158;24.732;2023-07-31T06:11:32;99116.81;;;26.15;91.86
8051;BME280;4068;42.158;24.732;2023-07-31T06:13:57;99128.34;;;26.46;90.59
8051;BME280;4068;42.158;24.732;2023-07-31T06:16:23;99130.59;;;26.73;88.00
8051;BME280;4068;42.158;24.732;2023-07-31T06:18:48;99115.41;;;26.89;86.52
8051;BME280;4068;42.158;24.732;2023-07-31T06:21:13;99116.94;;;26.97;86.64
8051;BME280;4068;42.158;24.732;2023-07-31T06:23:39;99119.63;;;27.09;85.49
8051;BME280;4068;42.158;24.732;2023-07-31T06:26:04;99129.69;;;26.96;85.08
8051;BME280;4068;42.158;24.732;2023-07-31T06:28:31;99125.00;;;26.92;85.68
8051;BME280;4068;42.158;24.732;2023-07-31T06:30:59;99127.22;;;26.95;85.27
8051;BME280;4068;42.158;24.732;2023-07-31T06:33:25;99121.53;;;26.96;85.16
8051;BME280;4068;42.158;24.732;2023-07-31T06:35:50;99123.44;;;26.96;85.98
8051;BME280;4068;42.158;24.732;2023-07-31T06:38:18;99122.69;;;27.12;84.55
8051;BME280;4068;42.158;24.732;2023-07-31T06:40:43;99125.34;;;27.24;85.08
8051;BME280;4068;42.158;24.732;2023-07-31T06:43:09;99126.41;;;27.35;83.71
8051;BME280;4068;42.158;24.732;2023-07-31T06:45:35;99106.75;;;27.33;83.67
8051;BME280;4068;42.158;24.732;2023-07-31T06:48:01;99098.53;;;27.45;82.39
8051;BME280;4068;42.158;24.732;2023-07-31T06:50:28;99125.06;;;27.83;81.41
8051;BME280;4068;42.158;24.732;2023-07-31T06:52:53;99120.94;;;27.81;81.23
8051;BME280;4068;42.158;24.732;2023-07-31T06:55:20;99120.50;;;27.89;80.34
8051;BME280;4068;42.158;24.732;2023-07-31T06:57:47;99098.56;;;27.79;81.09
8051;BME280;4068;42.158;24.732;2023-07-31T07:00:13;99115.84;;;28.01;80.79
8051;BME280;4068;42.158;24.732;2023-07-31T07:02:39;99121.94;;;28.26;80.18
8051;BME280;4068;42.158;24.732;2023-07-31T07:05:05;99113.72;;;28.42;79.05
8051;BME280;4068;42.158;24.732;2023-07-31T07:07:32;99110.88;;;28.54;77.66
8051;BME280;4068;42.158;24.732;2023-07-31T07:09:57;99114.97;;;28.52;78.83
8051;BME280;4068;42.158;24.732;2023-07-31T07:12:25;99100.81;;;28.55;76.77
8051;BME280;4068;42.158;24.732;2023-07-31T07:14:50;99092.25;;;28.46;76.76
8051;BME280;4068;42.158;24.732;2023-07-31T07:17:18;99116.84;;;28.51;76.97
8051;BME280;4068;42.158;24.732;2023-07-31T07:19:43;99120.00;;;28.43;77.71
8051;BME280;4068;42.158;24.732;2023-07-31T07:22:09;99114.38;;;28.50;78.41
8051;BME280;4068;42.158;24.732;2023-07-31T07:24:35;99115.75;;;28.69;77.28
8051;BME280;4068;42.158;24.732;2023-07-31T07:27:00;99113.47;;;28.83;77.80
8051;BME280;4068;42.158;24.732;2023-07-31T07:29:26;99117.38;;;28.92;75.91
8051;BME280;4068;42.158;24.732;2023-07-31T07:31:51;99116.44;;;29.04;76.22
8051;BME280;4068;42.158;24.732;2023-07-31T07:34:17;99115.34;;;29.27;74.31
8051;BME280;4068;42.158;24.732;2023-07-31T07:36:42;99114.34;;;29.33;73.94
8051;BME280;4068;42.158;24.732;2023-07-31T07:39:09;99116.09;;;29.50;73.81
8051;BME280;4068;42.158;24.732;2023-07-31T07:41:35;99094.53;;;29.48;73.23
8051;BME280;4068;42.158;24.732;2023-07-31T07:44:00;99115.03;;;29.51;74.00
8051;BME280;4068;42.158;24.732;2023-07-31T07:46:26;99124.25;;;29.72;71.58
8051;BME280;4068;42.158;24.732;2023-07-31T07:48:51;99113.66;;;29.81;70.50
8051;BME280;4068;42.158;24.732;2023-07-31T07:51:17;99099.72;;;29.82;68.58
8051;BME280;4068;42.158;24.732;2023-07-31T07:53:42;99109.97;;;29.97;69.03
8051;BME280;4068;42.158;24.732;2023-07-31T07:56:07;99113.06;;;30.06;69.54
8051;BME280;4068;42.158;24.732;2023-07-31T07:58:33;99111.16;;;30.06;69.91
8051;BME280;4068;42.158;24.732;2023-07-31T08:00:58;99108.34;;;29.96;68.75
8051;BME280;4068;42.158;24.732;2023-07-31T08:03:24;99105.94;;;30.05;69.29
8051;BME280;4068;42.158;24.732;2023-07-31T08:05:49;99104.66;;;30.18;69.42
8051;BME280;4068;42.158;24.732;2023-07-31T08:08:15;99110.72;;;30.25;67.85
8051;BME280;4068;42.158;24.732;2023-07-31T08:10:41;99108.03;;;30.30;67.21
8051;BME280;4068;42.158;24.732;2023-07-31T08:13:07;99081.28;;;30.37;67.01
8051;BME280;4068;42.158;24.732;2023-07-31T08:15:32;99098.72;;;30.79;64.73
8051;BME280;4068;42.158;24.732;2023-07-31T08:17:58;99099.84;;;30.88;63.36
8051;BME280;4068;42.158;24.732;2023-07-31T08:20:23;99084.25;;;30.94;61.50
8051;BME280;4068;42.158;24.732;2023-07-31T08:22:48;99091.44;;;31.10;61.58
8051;BME280;4068;42.158;24.732;2023-07-31T08:25:14;99087.63;;;31.27;62.00
8051;BME280;4068;42.158;24.732;2023-07-31T08:27:43;99095.34;;;31.40;60.61
8051;BME280;4068;42.158;24.732;2023-07-31T08:30:09;99070.47;;;31.57;59.60
8051;BME280;4068;42.158;24.732;2023-07-31T08:32:34;99082.19;;;31.94;58.24
8051;BME280;4068;42.158;24.732;2023-07-31T08:35:00;99089.31;;;32.26;57.96
8051;BME280;4068;42.158;24.732;2023-07-31T08:37:25;99084.00;;;32.60;57.83
8051;BME280;4068;42.158;24.732;2023-07-31T08:39:50;99065.13;;;32.43;56.51
8051;BME280;4068;42.158;24.732;2023-07-31T08:42:16;99085.44;;;32.37;56.56
8051;BME280;4068;42.158;24.732;2023-07-31T08:44:43;99083.03;;;32.20;57.11
8051;BME280;4068;42.158;24.732;2023-07-31T08:47:09;99092.34;;;32.24;57.66
8051;BME280;4068;42.158;24.732;2023-07-31T08:49:36;99086.53;;;32.36;56.84
8051;BME280;4068;42.158;24.732;2023-07-31T08:52:03;99080.22;;;32.46;56.53
8051;BME280;4068;42.158;24.732;2023-07-31T08:54:29;99089.69;;;32.79;54.97
8051;BME280;4068;42.158;24.732;2023-07-31T08:56:57;99081.22;;;32.81;54.36
8051;BME280;4068;42.158;24.732;2023-07-31T08:59:23;99081.47;;;32.79;53.17
8051;BME280;4068;42.158;24.732;2023-07-31T09:01:52;99084.19;;;32.90;53.03
8051;BME280;4068;42.158;24.732;2023-07-31T09:04:19;99083.16;;;32.70;52.98
8051;BME280;4068;42.158;24.732;2023-07-31T09:06:46;99086.16;;;32.74;52.91
8051;BME280;4068;42.158;24.732;2023-07-31T09:09:13;99077.69;;;32.60;53.45
8051;BME280;4068;42.158;24.732;2023-07-31T09:11:39;99070.56;;;32.53;52.85
8051;BME280;4068;42.158;24.732;2023-07-31T09:14:05;99082.84;;;32.66;52.93
8051;BME280;4068;42.158;24.732;2023-07-31T09:16:34;99069.97;;;32.67;52.63
8051;BME280;4068;42.158;24.732;2023-07-31T09:19:00;99080.63;;;32.84;52.67
8051;BME280;4068;42.158;24.732;2023-07-31T09:21:27;99054.16;;;33.03;51.98
8051;BME280;4068;42.158;24.732;2023-07-31T09:23:53;99063.16;;;33.09;51.28
8051;BME280;4068;42.158;24.732;2023-07-31T09:26:37;99066.41;;;33.16;51.51
8051;BME280;4068;42.158;24.732;2023-07-31T09:29:07;99073.03;;;33.15;51.85
8051;BME280;4068;42.158;24.732;2023-07-31T09:31:43;99052.81;;;33.01;52.25
8051;BME280;4068;42.158;24.732;2023-07-31T09:34:09;99064.03;;;33.49;50.80
8051;BME280;4068;42.158;24.732;2023-07-31T09:36:54;99062.09;;;33.84;48.29
8051;BME280;4068;42.158;24.732;2023-07-31T09:39:20;99045.03;;;34.12;47.40
8051;BME280;4068;42.158;24.732;2023-07-31T09:42:03;99054.16;;;34.61;46.63
8051;BME280;4068;42.158;24.732;2023-07-31T09:44:41;99059.19;;;35.16;46.56
8051;BME280;4068;42.158;24.732;2023-07-31T09:47:21;99060.75;;;35.74;43.75
8051;BME280;4068;42.158;24.732;2023-07-31T09:49:47;99053.50;;;36.11;41.42
8051;BME280;4068;42.158;24.732;2023-07-31T09:52:13;99056.66;;;35.90;42.00
8051;BME280;4068;42.158;24.732;2023-07-31T09:54:39;99054.28;;;35.84;42.10
8051;BME280;4068;42.158;24.732;2023-07-31T09:57:04;99055.69;;;35.48;42.51
8051;BME280;4068;42.158;24.732;2023-07-31T09:59:30;99055.25;;;35.22;43.69
8051;BME280;4068;42.158;24.732;2023-07-31T10:01:56;99044.91;;;35.14;43.73
8051;BME280;4068;42.158;24.732;2023-07-31T10:04:24;99045.94;;;34.80;44.89
8051;BME280;4068;42.158;24.732;2023-07-31T10:06:53;99060.66;;;34.89;43.98
8051;BME280;4068;42.158;24.732;2023-07-31T10:09:19;99027.28;;;34.71;44.38
8051;BME280;4068;42.158;24.732;2023-07-31T10:11:50;99037.09;;;35.02;45.65
8051;BME280;4068;42.158;24.732;2023-07-31T10:14:21;99041.91;;;35.29;43.50
8051;BME280;4068;42.158;24.732;2023-07-31T10:16:49;99018.38;;;35.37;42.71
8051;BME280;4068;42.158;24.732;2023-07-31T10:19:15;99022.13;;;35.60;41.51
8051;BME280;4068;42.158;24.732;2023-07-31T10:21:42;99029.88;;;35.58;41.72
8051;BME280;4068;42.158;24.732;2023-07-31T10:24:08;99022.94;;;35.60;41.82
8051;BME280;4068;42.158;24.732;2023-07-31T10:26:35;99017.44;;;35.74;41.86
8051;BME280;4068;42.158;24.732;2023-07-31T10:29:03;99016.50;;;36.12;39.81
8051;BME280;4068;42.158;24.732;2023-07-31T10:31:29;99016.00;;;35.96;40.13
8051;BME280;4068;42.158;24.732;2023-07-31T10:33:56;98990.25;;;36.01;40.43
8051;BME280;4068;42.158;24.732;2023-07-31T10:36:22;99008.41;;;35.88;41.23
8051;BME280;4068;42.158;24.732;2023-07-31T10:38:51;98998.94;;;36.08;41.04
8051;BME280;4068;42.158;24.732;2023-07-31T10:41:16;98990.22;;;36.28;41.06
8051;BME280;4068;42.158;24.732;2023-07-31T10:43:42;99003.09;;;36.47;39.95
8051;BME280;4068;42.158;24.732;2023-07-31T10:46:09;98981.66;;;36.16;39.15
8051;BME280;4068;42.158;24.732;2023-07-31T10:48:38;98971.34;;;36.22;40.03
8051;BME280;4068;42.158;24.732;2023-07-31T10:51:21;98986.06;;;36.45;38.33
8051;BME280;4068;42.158;24.732;2023-07-31T10:53:47;98979.19;;;36.42;38.74
8051;BME280;4068;42.158;24.732;2023-07-31T10:56:13;98974.72;;;36.33;38.43
8051;BME280;4068;42.158;24.732;2023-07-31T10:58:44;98952.91;;;36.17;38.26
8051;BME280;4068;42.158;24.732;2023-07-31T11:01:10;98970.41;;;36.13;39.10
8051;BME280;4068;42.158;24.732;2023-07-31T11:06:11;98967.97;;;36.25;39.22
8051;BME280;4068;42.158;24.732;2023-07-31T11:08:47;98967.75;;;36.21;38.72
8051;BME280;4068;42.158;24.732;2023-07-31T11:11:15;98982.22;;;35.57;42.54
8051;BME280;4068;42.158;24.732;2023-07-31T11:16:15;98998.25;;;32.34;54.21
8051;BME280;4068;42.158;24.732;2023-07-31T11:18:42;99000.56;;;31.13;59.48
8051;BME280;4068;42.158;24.732;2023-07-31T11:21:15;99007.44;;;30.37;62.44
8051;BME280;4068;42.158;24.732;2023-07-31T11:23:41;99002.31;;;29.98;63.20
8051;BME280;4068;42.158;24.732;2023-07-31T11:26:10;99016.00;;;30.03;62.75
8051;BME280;4068;42.158;24.732;2023-07-31T11:28:36;99003.38;;;29.92;62.65
8051;BME280;4068;42.158;24.732;2023-07-31T11:31:02;98994.50;;;29.74;63.85
8051;BME280;4068;42.158;24.732;2023-07-31T11:33:28;98994.13;;;29.66;64.33
8051;BME280;4068;42.158;24.732;2023-07-31T11:35:53;98982.25;;;29.82;63.22
8051;BME280;4068;42.158;24.732;2023-07-31T11:40:48;98978.88;;;30.12;61.97
8051;BME280;4068;42.158;24.732;2023-07-31T11:43:14;98982.53;;;30.34;59.96
8051;BME280;4068;42.158;24.732;2023-07-31T11:45:46;98986.69;;;30.46;59.26
8051;BME280;4068;42.158;24.732;2023-07-31T11:48:21;98980.69;;;30.50;59.33
8051;BME280;4068;42.158;24.732;2023-07-31T11:50:51;98987.31;;;30.69;58.80
8051;BME280;4068;42.158;24.732;2023-07-31T11:53:20;98987.13;;;31.07;57.78
8051;BME280;4068;42.158;24.732;2023-07-31T11:55:47;98972.63;;;31.11;57.46
8051;BME280;4068;42.158;24.732;2023-07-31T11:58:14;98947.44;;;31.30;55.67
8051;BME280;4068;42.158;24.732;2023-07-31T12:00:40;98965.22;;;31.63;54.77
8051;BME280;4068;42.158;24.732;2023-07-31T12:03:06;98950.13;;;31.81;54.07
8051;BME280;4068;42.158;24.732;2023-07-31T12:05:32;98957.78;;;31.90;54.53
8051;BME280;4068;42.158;24.732;2023-07-31T12:07:57;98959.63;;;32.05;53.54
8051;BME280;4068;42.158;24.732;2023-07-31T12:10:30;98949.75;;;32.19;52.17
8051;BME280;4068;42.158;24.732;2023-07-31T12:13:09;98951.94;;;32.07;53.08
8051;BME280;4068;42.158;24.732;2023-07-31T12:15:44;98950.09;;;31.87;55.24
8051;BME280;4068;42.158;24.732;2023-07-31T12:18:15;98921.59;;;31.88;54.07
8051;BME280;4068;42.158;24.732;2023-07-31T12:20:45;98930.56;;;32.04;53.89
8051;BME280;4068;42.158;24.732;2023-07-31T12:23:19;98940.91;;;32.32;53.05
8051;BME280;4068;42.158;24.732;2023-07-31T12:28:25;98910.34;;;32.49;51.55
8051;BME280;4068;42.158;24.732;2023-07-31T12:30:51;98924.69;;;32.86;50.03
8051;BME280;4068;42.158;24.732;2023-07-31T12:33:18;98914.09;;;32.69;49.61
8051;BME280;4068;42.158;24.732;2023-07-31T12:35:46;98923.88;;;32.85;47.31
8051;BME280;4068;42.158;24.732;2023-07-31T12:38:13;98918.75;;;33.08;46.94
8051;BME280;4068;42.158;24.732;2023-07-31T12:40:40;98919.81;;;33.47;44.91
8051;BME280;4068;42.158;24.732;2023-07-31T12:43:06;98924.53;;;33.41;45.05
8051;BME280;4068;42.158;24.732;2023-07-31T12:45:32;98920.81;;;33.27;44.50
8051;BME280;4068;42.158;24.732;2023-07-31T12:47:59;98909.69;;;33.08;45.24
8051;BME280;4068;42.158;24.732;2023-07-31T12:50:25;98923.50;;;32.97;44.38
8051;BME280;4068;42.158;24.732;2023-07-31T12:52:51;98895.88;;;32.83;42.63
8051;BME280;4068;42.158;24.732;2023-07-31T12:55:17;98913.78;;;32.76;43.55
8051;BME280;4068;42.158;24.732;2023-07-31T12:57:44;98927.47;;;32.81;43.77
8051;BME280;4068;42.158;24.732;2023-07-31T13:00:09;98925.56;;;32.76;44.46
8051;BME280;4068;42.158;24.732;2023-07-31T13:02:35;98914.59;;;32.76;47.34
8051;BME280;4068;42.158;24.732;2023-07-31T13:05:00;98913.59;;;33.01;47.83
8051;BME280;4068;42.158;24.732;2023-07-31T13:07:26;98899.25;;;32.75;45.64
8051;BME280;4068;42.158;24.732;2023-07-31T13:09:52;98901.03;;;32.90;45.04
8051;BME280;4068;42.158;24.732;2023-07-31T13:12:17;98879.09;;;33.49;43.09
8051;BME280;4068;42.158;24.732;2023-07-31T13:14:43;98902.69;;;34.03;42.76
8051;BME280;4068;42.158;24.732;2023-07-31T13:17:08;98908.94;;;34.09;41.14
8051;BME280;4068;42.158;24.732;2023-07-31T13:19:33;98901.69;;;33.94;42.20
8051;BME280;4068;42.158;24.732;2023-07-31T13:21:59;98907.53;;;33.87;42.39
8051;BME280;4068;42.158;24.732;2023-07-31T13:24:24;98897.34;;;34.12;42.83